Time;durP1;ratioP1;P1;durP2;ratioP2;P2;SDS_P1;SDS_P2;PMS_P1;PMS_P2;Temp;Humidity;BMP_temperature;BMP_pressure;BME280_temperature;BME280_humidity;BME280_pressure;Samples;Min_cycle;Max_cycle;Signal;HPM_P1;HPM_P2
2023/03/18 00:00:43;;;;;;;6.23;5.30;;;7.20;62.10;;;7.30;59.22;97502.22;5111169;28;20446;-82
2023/03/18 00:03:11;;;;;;;6.33;5.23;;;7.10;62.50;;;7.19;59.34;97500.16;5110499;27;20443;-84
2023/03/18 00:05:39;;;;;;;6.70;5.80;;;7.10;62.70;;;7.18;59.65;97522.69;5112604;28;20944;-83
2023/03/18 00:08:07;;;;;;;9.20;5.90;;;7.00;63.10;;;7.14;59.10;97494.59;5091940;28;20922;-84
2023/03/18 00:10:34;;;;;;;10.37;5.33;;;7.00;63.50;;;7.18;59.78;97509.25;5126748;27;20454;-81
2023/03/18 00:13:04;;;;;;;6.93;5.23;;;7.00;63.90;;;7.16;59.64;97506.78;5107672;28;20474;-83
2023/03/18 00:15:32;;;;;;;15.43;6.80;;;7.00;64.40;;;6.76;60.51;97483.41;5115353;27;20508;-84
2023/03/18 00:17:59;;;;;;;10.83;5.50;;;7.00;64.90;;;6.95;60.52;97497.88;5097825;28;20828;-82
2023/03/18 00:20:37;;;;;;;9.00;5.37;;;7.00;64.80;;;7.05;60.12;97505.56;5097751;28;20438;-83
2023/03/18 00:23:07;;;;;;;7.43;5.30;;;7.00;64.80;;;7.08;60.41;97515.03;5111414;28;20457;-83
2023/03/18 00:25:34;;;;;;;6.83;4.93;;;6.90;65.40;;;7.15;60.03;97505.13;5096096;28;20544;-81
2023/03/18 00:28:03;;;;;;;9.10;5.00;;;7.00;65.90;;;6.90;60.15;97456.53;5131123;27;20458;-81
2023/03/18 00:30:31;;;;;;;8.13;5.33;;;7.00;65.70;;;7.05;60.28;97489.44;5095034;28;20975;-82
2023/03/18 00:32:59;;;;;;;11.37;6.00;;;7.00;65.80;;;7.10;60.35;97507.59;5123882;27;20464;-81
2023/03/18 00:35:29;;;;;;;8.40;5.80;;;7.00;65.90;;;6.44;61.58;97447.41;5112627;27;20439;-80
2023/03/18 00:37:57;;;;;;;6.20;5.30;;;6.90;66.50;;;6.83;60.91;97507.59;5116710;28;20528;-82
2023/03/18 00:40:29;;;;;;;10.53;5.77;;;6.80;66.60;;;6.85;61.58;97516.25;5098558;28;20477;-80
2023/03/18 00:43:06;;;;;;;8.23;6.33;;;6.70;67.20;;;6.69;61.73;97500.53;5103173;28;20469;-82
2023/03/18 00:45:38;;;;;;;9.53;6.00;;;6.70;67.70;;;6.68;61.63;97505.06;5117977;28;20441;-82
2023/03/18 00:48:06;;;;;;;5.73;4.90;;;6.70;67.70;;;6.59;61.32;97491.00;5118082;28;20461;-81
2023/03/18 00:50:34;;;;;;;7.73;5.40;;;6.70;67.50;;;6.80;61.36;97521.41;5113646;28;20491;-81
2023/03/18 00:53:01;;;;;;;5.17;4.60;;;6.70;67.60;;;6.79;60.66;97523.28;5103924;28;20502;-81
2023/03/18 00:55:29;;;;;;;8.77;5.27;;;6.70;67.20;;;6.90;60.33;97516.47;5112757;27;20610;-81
2023/03/18 00:57:56;;;;;;;5.30;4.60;;;6.80;66.80;;;6.84;59.85;97514.59;5137865;27;20458;-80
2023/03/18 01:00:25;;;;;;;5.60;5.07;;;6.90;66.50;;;6.81;59.54;97498.88;5109998;28;20456;-81
2023/03/18 01:02:55;;;;;;;8.17;4.70;;;6.90;66.20;;;6.66;59.83;97486.47;5099754;28;20453;-80
2023/03/18 01:05:23;;;;;;;7.40;4.33;;;6.80;65.90;;;6.76;59.51;97512.09;5115530;27;20929;-80
2023/03/18 01:07:50;;;;;;;4.70;3.90;;;6.90;65.70;;;6.47;59.40;97453.19;5086670;28;20452;-82
2023/03/18 01:10:18;;;;;;;6.03;4.93;;;6.90;65.50;;;6.63;59.42;97483.38;5090773;28;20472;-81
2023/03/18 01:12:46;;;;;;;7.47;4.53;;;6.80;65.10;;;6.82;59.09;97521.22;5103768;28;20850;-81
2023/03/18 01:15:17;;;;;;;12.90;6.30;;;6.80;65.10;;;6.71;59.24;97507.34;5097285;28;20447;-81
2023/03/18 01:17:45;;;;;;;7.23;4.97;;;6.80;64.90;;;6.84;58.86;97505.72;5099123;28;20466;-82
2023/03/18 01:20:18;;;;;;;5.77;4.40;;;6.80;64.70;;;6.73;58.60;97494.53;5095206;28;20456;-80
2023/03/18 01:22:45;;;;;;;5.93;4.70;;;6.80;65.20;;;6.75;58.80;97502.41;5098738;28;20510;-80
2023/03/18 01:25:15;;;;;;;9.17;4.57;;;6.80;64.90;;;6.73;58.75;97513.31;5096842;28;20541;-81
2023/03/18 01:27:42;;;;;;;6.17;4.70;;;6.70;64.80;;;6.86;58.44;97520.59;5118801;27;20486;-81
2023/03/18 01:30:13;;;;;;;4.53;3.93;;;6.70;64.70;;;6.82;58.59;97519.34;5102393;28;20466;-81
2023/03/18 01:32:42;;;;;;;6.60;4.10;;;6.70;64.70;;;6.16;58.59;97424.22;5113251;28;20509;-81
2023/03/18 01:35:11;;;;;;;6.50;4.37;;;6.70;64.70;;;6.51;58.91;97499.22;5105561;28;20502;-80
2023/03/18 01:37:40;;;;;;;4.70;4.03;;;6.70;64.60;;;6.61;58.94;97506.91;5102418;28;20569;-80
2023/03/18 01:40:14;;;;;;;5.37;4.03;;;6.70;64.80;;;6.51;59.27;97510.81;5127304;27;20450;-82
2023/03/18 01:42:48;;;;;;;7.57;4.60;;;6.60;64.90;;;6.62;59.58;97532.72;5103073;28;20456;-79
2023/03/18 01:45:22;;;;;;;5.43;4.37;;;6.60;65.10;;;6.61;59.50;97526.53;5112009;28;20532;-78
2023/03/18 01:47:50;;;;;;;5.20;4.70;;;6.50;65.20;;;6.22;59.53;97491.28;5104425;28;20439;-80
2023/03/18 01:50:22;;;;;;;4.37;3.83;;;6.50;65.50;;;6.03;60.07;97457.19;5134576;27;20470;-80
2023/03/18 01:52:55;;;;;;;6.60;4.43;;;6.50;65.80;;;6.44;60.28;97519.84;5096012;28;20451;-80
2023/03/18 01:55:27;;;;;;;7.43;4.70;;;6.40;65.90;;;6.36;60.72;97518.19;5144170;27;20888;-80
2023/03/18 01:57:55;;;;;;;4.83;4.37;;;6.40;66.10;;;6.11;60.76;97497.22;5110816;28;20452;-79
2023/03/18 02:00:22;;;;;;;5.27;4.17;;;6.40;66.00;;;6.35;60.43;97516.53;5111598;28;20449;-79
2023/03/18 02:02:52;;;;;;;6.20;4.30;;;6.40;66.10;;;6.44;60.96;97531.41;5114329;28;20454;-81
2023/03/18 02:05:23;;;;;;;5.27;4.73;;;6.40;66.60;;;6.42;60.43;97538.03;5108756;28;20493;-80
2023/03/18 02:07:55;;;;;;;5.00;4.03;;;6.40;66.80;;;6.21;60.70;97502.22;5102855;28;20451;-80
2023/03/18 02:10:25;;;;;;;5.87;5.10;;;6.30;67.10;;;6.42;60.46;97530.78;5079578;28;21034;-81
2023/03/18 02:12:57;;;;;;;9.20;4.40;;;6.30;67.10;;;6.30;61.29;97530.53;5109738;28;20447;-80
2023/03/18 02:15:26;;;;;;;6.47;5.00;;;6.30;67.20;;;6.29;61.20;97547.66;5116540;27;20451;-80
2023/03/18 02:18:00;;;;;;;5.03;4.50;;;6.30;67.50;;;6.33;61.26;97534.69;5098968;28;20896;-79
2023/03/18 02:20:48;;;;;;;5.37;4.73;;;6.30;67.40;;;6.47;61.05;97549.81;5100309;28;20474;-78
2023/03/18 02:23:28;;;;;;;7.77;4.80;;;6.30;67.80;;;6.38;60.96;97534.91;5091066;28;20818;-79
2023/03/18 02:26:05;;;;;;;5.13;4.27;;;6.30;67.70;;;6.53;60.85;97550.88;5102036;28;20515;-79
2023/03/18 02:28:36;;;;;;;5.60;5.03;;;6.40;67.60;;;6.38;60.67;97542.94;5100613;27;20463;-78
2023/03/18 02:31:10;;;;;;;5.57;4.70;;;6.50;67.40;;;6.32;60.94;97539.22;5096341;28;20519;-80
2023/03/18 02:33:40;;;;;;;5.70;4.30;;;6.40;67.40;;;6.34;60.81;97555.13;5122292;27;20977;-80
2023/03/18 02:36:14;;;;;;;7.57;5.20;;;6.30;67.30;;;6.08;61.82;97540.53;5092486;28;20908;-81
2023/03/18 02:38:42;;;;;;;5.80;4.40;;;6.30;67.80;;;6.32;61.57;97559.88;5096298;28;20435;-81
2023/03/18 02:41:18;;;;;;;5.57;4.67;;;6.20;67.80;;;6.17;62.02;97558.13;5091053;28;20925;-80
2023/03/18 02:43:47;;;;;;;5.20;4.53;;;6.20;68.20;;;6.08;62.22;97560.16;5108443;28;20520;-80
2023/03/18 02:46:29;;;;;;;7.50;5.30;;;6.20;68.30;;;6.09;62.33;97560.97;5122421;27;20440;-82
2023/03/18 02:48:59;;;;;;;7.07;4.90;;;6.20;68.50;;;6.13;61.80;97561.41;5095083;28;20458;-81
2023/03/18 02:51:28;;;;;;;7.37;5.47;;;6.10;68.50;;;5.70;62.59;97498.84;5092625;28;20454;-81
2023/03/18 02:54:01;;;;;;;6.10;4.83;;;6.10;69.00;;;6.13;62.27;97567.59;5089677;28;20458;-81
2023/03/18 02:56:29;;;;;;;6.50;5.37;;;6.10;69.10;;;5.98;62.93;97556.13;5100793;28;20754;-81
2023/03/18 02:58:58;;;;;;;7.77;5.17;;;6.10;69.10;;;6.07;62.62;97554.97;5092790;28;20849;-81
2023/03/18 03:01:25;;;;;;;5.73;4.77;;;6.20;69.40;;;6.13;62.71;97556.03;5098449;28;20920;-80
2023/03/18 03:03:52;;;;;;;5.83;5.10;;;6.20;69.30;;;6.14;62.77;97563.91;5092692;28;20767;-81
2023/03/18 03:06:21;;;;;;;5.50;4.73;;;6.10;69.70;;;6.04;62.98;97566.13;5090936;28;20456;-80
2023/03/18 03:08:49;;;;;;;6.73;4.90;;;6.00;69.80;;;5.51;62.68;97490.47;5123170;27;20441;-79
2023/03/18 03:11:16;;;;;;;7.47;6.10;;;6.00;69.90;;;5.57;63.27;97509.47;5116968;27;20465;-81
2023/03/18 03:13:44;;;;;;;10.40;5.70;;;5.90;70.20;;;5.95;63.09;97576.94;5085139;28;20451;-80
2023/03/18 03:16:14;;;;;;;6.67;5.07;;;6.00;70.50;;;5.99;63.59;97576.56;5113696;27;20509;-81
2023/03/18 03:18:42;;;;;;;8.10;5.77;;;6.00;70.70;;;5.99;63.29;97576.56;5087188;28;20463;-79
2023/03/18 03:21:10;;;;;;;7.13;5.23;;;6.00;70.70;;;5.90;63.50;97589.28;5089779;28;20452;-80
2023/03/18 03:23:38;;;;;;;9.77;5.17;;;5.90;70.60;;;5.78;64.00;97562.19;5097038;28;20446;-80
2023/03/18 03:26:06;;;;;;;10.63;5.57;;;5.90;71.00;;;5.88;64.03;97580.63;5132587;27;20786;-81
2023/03/18 03:28:35;;;;;;;9.20;5.97;;;5.80;71.20;;;5.55;63.82;97524.91;5090212;28;20449;-80
2023/03/18 03:31:02;;;;;;;6.33;5.37;;;5.80;71.60;;;5.81;63.68;97577.88;5099024;28;20475;-80
2023/03/18 03:33:32;;;;;;;7.13;5.27;;;5.80;71.50;;;5.79;64.17;97585.28;5097814;28;20467;-80
2023/03/18 03:35:59;;;;;;;7.67;5.40;;;5.80;71.60;;;5.77;63.49;97566.75;5096690;28;20455;-82
2023/03/18 03:38:27;;;;;;;8.00;5.33;;;5.80;71.90;;;5.86;63.89;97582.66;5099124;28;20516;-81
2023/03/18 03:40:55;;;;;;;7.53;4.97;;;5.80;71.70;;;5.89;63.84;97604.56;5100809;28;20462;-82
2023/03/18 03:43:22;;;;;;;9.40;5.97;;;5.90;71.80;;;5.77;64.55;97590.03;5094787;28;20626;-79
2023/03/18 03:45:50;;;;;;;6.97;5.30;;;5.80;71.70;;;5.70;63.98;97559.69;5093801;28;20516;-80
2023/03/18 03:48:17;;;;;;;6.97;4.97;;;5.90;71.80;;;5.78;64.59;97584.47;5099383;28;21044;-80
2023/03/18 03:50:46;;;;;;;7.50;5.43;;;5.90;72.10;;;5.91;64.37;97586.41;5107120;28;20465;-81
2023/03/18 03:53:14;;;;;;;9.00;5.63;;;5.80;72.10;;;5.37;64.73;97521.69;5098793;28;20446;-81
2023/03/18 03:55:41;;;;;;;8.73;5.83;;;5.70;72.50;;;5.66;64.84;97597.56;5093677;28;20454;-79
2023/03/18 03:58:09;;;;;;;6.77;5.40;;;5.60;73.00;;;5.74;65.10;97598.47;5126879;27;20997;-78
2023/03/18 04:00:37;;;;;;;10.10;5.80;;;5.60;73.30;;;5.60;65.52;97598.34;5089498;28;20793;-79
2023/03/18 04:03:04;;;;;;;7.80;5.60;;;5.50;73.40;;;5.49;65.46;97580.13;5096323;28;20437;-80
2023/03/18 04:05:32;;;;;;;8.70;5.40;;;5.60;73.60;;;5.62;65.53;97584.78;5127377;27;20467;-81
2023/03/18 04:08:01;;;;;;;5.90;5.23;;;5.60;73.70;;;5.67;65.10;97585.81;5125965;27;20782;-81
2023/03/18 04:10:29;;;;;;;5.40;4.87;;;5.60;73.80;;;5.75;64.76;97600.13;5091096;28;20480;-78
2023/03/18 04:12:57;;;;;;;7.77;5.43;;;5.60;73.90;;;5.42;65.26;97549.78;5101713;28;20456;-79
2023/03/18 04:15:25;;;;;;;7.80;6.23;;;5.60;74.20;;;5.66;65.55;97581.50;5087808;28;20540;-79
2023/03/18 04:17:53;;;;;;;6.07;4.93;;;5.60;74.30;;;5.78;65.21;97607.78;5095201;28;20480;-80
2023/03/18 04:20:20;;;;;;;7.90;5.43;;;5.60;74.40;;;5.76;65.66;97612.50;5096235;27;20448;-79
2023/03/18 04:22:48;;;;;;;8.20;5.37;;;5.60;74.90;;;5.51;67.31;97603.03;5103157;28;20507;-79
2023/03/18 04:25:17;;;;;;;8.77;6.07;;;5.50;75.00;;;5.58;66.79;97608.44;5128338;27;21101;-80
2023/03/18 04:27:44;;;;;;;7.63;6.00;;;5.60;75.10;;;5.59;67.20;97604.75;5145873;27;20440;-81
2023/03/18 04:30:13;;;;;;;6.20;5.53;;;5.60;75.10;;;5.63;67.01;97606.00;5111617;28;20535;-80
2023/03/18 04:32:41;;;;;;;7.67;5.30;;;5.60;75.30;;;5.56;66.83;97589.06;5113748;28;20440;-80
2023/03/18 04:35:10;;;;;;;8.13;6.10;;;5.60;75.80;;;5.63;67.37;97608.69;5116082;28;20532;-81
2023/03/18 04:37:38;;;;;;;7.70;5.73;;;5.60;75.70;;;5.73;66.58;97605.66;5101330;28;20449;-80
2023/03/18 04:40:06;;;;;;;8.20;7.00;;;5.70;75.60;;;5.66;67.20;97610.97;5099405;28;20437;-79
2023/03/18 04:42:35;;;;;;;6.77;6.07;;;5.60;75.70;;;5.76;66.54;97605.31;5104523;28;20917;-80
2023/03/18 04:45:04;;;;;;;7.27;5.70;;;5.60;75.80;;;5.39;66.76;97546.47;5096567;28;20981;-80
2023/03/18 04:47:32;;;;;;;5.77;5.10;;;5.60;75.90;;;5.12;67.37;97517.78;5096807;28;20487;-80
2023/03/18 04:49:59;;;;;;;9.10;6.00;;;5.60;76.00;;;5.66;67.06;97600.25;5093699;28;20476;-80
2023/03/18 04:52:26;;;;;;;10.37;6.80;;;5.50;76.10;;;5.73;66.73;97599.50;5092052;28;20456;-80
2023/03/18 04:54:54;;;;;;;6.27;5.13;;;5.50;76.40;;;5.66;66.75;97608.28;5122135;27;20448;-78
2023/03/18 04:57:21;;;;;;;8.17;6.27;;;5.50;76.10;;;5.48;67.91;97592.69;5111683;27;20825;-80
2023/03/18 04:59:50;;;;;;;7.23;5.80;;;5.40;76.50;;;5.55;67.33;97606.16;5092468;28;20962;-80
2023/03/18 05:02:18;;;;;;;6.40;5.50;;;5.40;76.70;;;5.57;67.08;97616.66;5084661;28;20477;-80
2023/03/18 05:04:45;;;;;;;7.17;5.80;;;5.40;76.60;;;5.52;67.65;97611.88;5086805;28;20534;-79
2023/03/18 05:07:14;;;;;;;8.57;5.87;;;5.40;76.70;;;5.42;68.28;97609.53;5088339;28;20442;-80
2023/03/18 05:09:42;;;;;;;8.60;6.20;;;5.40;76.90;;;4.93;68.04;97525.47;5114550;27;20611;-79
2023/03/18 05:12:14;;;;;;;8.33;6.20;;;5.30;76.90;;;5.36;68.05;97611.13;5104866;28;20460;-81
2023/03/18 05:14:42;;;;;;;10.87;5.57;;;5.30;77.00;;;5.13;68.48;97607.81;5109175;28;20509;-81
2023/03/18 05:17:14;;;;;;;10.67;6.50;;;5.30;76.90;;;5.21;68.13;97599.66;5104894;28;20453;-80
2023/03/18 05:19:43;;;;;;;8.00;6.10;;;5.40;77.20;;;5.45;68.02;97619.03;5122029;27;20449;-80
2023/03/18 05:22:11;;;;;;;6.83;5.53;;;5.40;77.10;;;5.35;68.18;97620.19;5103924;28;20489;-80
2023/03/18 05:24:39;;;;;;;10.30;6.50;;;5.30;77.30;;;5.16;69.13;97610.97;5099930;28;20963;-80
2023/03/18 05:27:07;;;;;;;7.83;6.20;;;5.30;77.40;;;5.28;68.46;97618.47;5107760;28;20473;-80
2023/03/18 05:29:36;;;;;;;7.30;6.33;;;5.20;77.50;;;5.04;68.61;97597.22;5090854;28;20469;-81
2023/03/18 05:32:05;;;;;;;9.30;7.10;;;5.20;77.70;;;5.29;68.66;97620.97;5092013;28;20469;-81
2023/03/18 05:34:36;;;;;;;8.50;6.10;;;5.30;77.80;;;5.25;68.67;97615.16;5087607;28;20471;-81
2023/03/18 05:37:03;;;;;;;7.10;5.67;;;5.30;77.80;;;5.37;68.25;97606.63;5090697;28;20445;-83
2023/03/18 05:39:32;;;;;;;11.40;6.53;;;5.30;77.60;;;5.50;68.01;97616.63;5101148;27;20470;-81
2023/03/18 05:41:59;;;;;;;8.00;6.13;;;5.40;77.60;;;5.31;68.10;97618.91;5089045;28;20447;-79
2023/03/18 05:44:28;;;;;;;7.77;6.33;;;5.40;77.60;;;5.31;68.83;97604.72;5117722;27;20721;-72
2023/03/18 05:46:55;;;;;;;10.60;6.40;;;5.40;77.70;;;5.52;67.87;97625.28;5091732;28;20503;-72
2023/03/18 05:49:23;;;;;;;8.53;6.50;;;5.40;77.60;;;5.42;68.38;97608.72;5088226;28;20456;-72
2023/03/18 05:51:52;;;;;;;6.90;6.00;;;5.40;77.60;;;5.20;68.63;97609.56;5105743;27;20468;-73
2023/03/18 05:54:19;;;;;;;7.20;6.50;;;5.30;77.70;;;5.11;68.79;97597.28;5110269;27;20565;-73
2023/03/18 05:56:46;;;;;;;10.33;6.30;;;5.30;78.00;;;5.29;69.15;97623.66;5098121;28;20916;-73
2023/03/18 05:59:15;;;;;;;7.00;6.10;;;5.30;78.00;;;4.99;68.23;97540.75;5093401;28;20468;-74
2023/03/18 06:01:43;;;;;;;8.57;6.20;;;5.40;77.80;;;5.52;68.74;97622.59;5100817;28;20545;-73
2023/03/18 06:04:10;;;;;;;7.90;6.50;;;5.50;77.90;;;5.46;68.15;97610.00;5077447;28;20794;-75
2023/03/18 06:06:39;;;;;;;8.50;5.93;;;5.50;77.80;;;5.68;67.76;97627.69;5083761;28;20479;-70
2023/03/18 06:09:09;;;;;;;6.83;6.03;;;5.50;77.90;;;5.45;68.49;97616.38;5086373;28;20669;-74
2023/03/18 06:11:36;;;;;;;6.73;6.13;;;5.60;77.80;;;5.68;67.95;97627.69;5084844;28;20470;-73
2023/03/18 06:14:06;;;;;;;7.20;6.27;;;5.60;77.80;;;5.88;67.30;97624.34;5089247;28;21170;-76
2023/03/18 06:16:34;;;;;;;8.40;6.00;;;5.70;77.70;;;5.60;67.76;97614.44;5085120;28;20458;-75
2023/03/18 06:19:02;;;;;;;9.07;5.80;;;5.70;77.40;;;5.53;68.03;97629.63;5084387;28;20855;-77
2023/03/18 06:21:30;;;;;;;9.67;6.87;;;5.70;77.40;;;5.85;67.66;97635.47;5087445;28;20940;-77
2023/03/18 06:23:57;;;;;;;8.60;6.37;;;5.80;77.40;;;6.00;67.15;97637.22;5086530;28;21080;-77
2023/03/18 06:26:26;;;;;;;8.27;6.50;;;5.80;77.20;;;5.90;66.77;97641.06;5083207;28;20467;-76
2023/03/18 06:28:53;;;;;;;10.03;7.47;;;5.90;77.20;;;6.08;66.96;97634.41;5087446;28;20515;-75
2023/03/18 06:31:21;;;;;;;10.30;6.63;;;5.90;77.20;;;6.19;65.92;97630.34;5072965;28;20929;-71
2023/03/18 06:33:48;;;;;;;7.70;6.97;;;6.10;76.90;;;6.15;66.24;97613.84;5093087;28;20716;-73
2023/03/18 06:36:16;;;;;;;12.63;8.37;;;6.20;76.80;;;6.30;66.13;97623.63;5077928;28;20446;-74
2023/03/18 06:38:43;;;;;;;7.23;6.50;;;6.30;76.60;;;6.52;65.14;97632.41;5082950;28;20477;-74
2023/03/18 06:41:12;;;;;;;7.97;7.00;;;6.40;76.10;;;6.58;64.64;97633.47;5100893;28;20441;-72
2023/03/18 06:43:40;;;;;;;8.00;6.10;;;6.50;75.80;;;6.68;64.50;97631.25;5118042;28;20442;-69
2023/03/18 06:46:07;;;;;;;9.17;7.20;;;6.60;75.70;;;6.71;64.56;97638.06;5087256;28;20450;-73
2023/03/18 06:48:39;;;;;;;8.00;6.53;;;6.60;75.50;;;6.74;62.74;97590.16;5092175;28;20450;-72
2023/03/18 06:51:06;;;;;;;6.67;5.97;;;6.80;75.20;;;7.35;62.46;97649.44;5091685;28;20482;-73
2023/03/18 06:53:35;;;;;;;8.03;6.00;;;7.00;75.10;;;6.73;62.40;97567.03;5095347;27;20491;-70
2023/03/18 06:56:02;;;;;;;7.70;6.90;;;7.00;74.70;;;7.27;62.26;97639.69;5088622;28;20455;-73
2023/03/18 06:58:30;;;;;;;10.33;6.80;;;7.20;74.50;;;7.35;61.78;97646.75;5081477;28;20456;-71
2023/03/18 07:00:59;;;;;;;8.27;6.47;;;7.30;74.20;;;7.28;62.23;97652.09;5111565;27;20959;-70
2023/03/18 07:03:27;;;;;;;10.40;6.80;;;7.30;74.00;;;7.24;62.50;97648.19;5118676;27;20523;-68
2023/03/18 07:05:54;;;;;;;10.10;7.23;;;7.30;74.10;;;7.45;62.16;97649.03;5088727;28;20565;-66
2023/03/18 07:08:21;;;;;;;8.53;6.87;;;7.30;74.00;;;7.47;61.80;97657.72;5099373;27;20465;-66
2023/03/18 07:10:52;;;;;;;15.30;6.70;;;7.40;73.80;;;7.71;61.06;97664.38;5083806;28;20506;-78
2023/03/18 07:13:19;;;;;;;8.60;7.00;;;7.50;73.90;;;7.62;61.40;97662.94;5100967;27;20463;-76
2023/03/18 07:15:46;;;;;;;10.13;7.57;;;7.50;73.40;;;7.86;60.78;97666.88;5076565;28;20459;-74
2023/03/18 07:18:15;;;;;;;8.53;6.87;;;7.60;73.90;;;7.50;61.27;97663.53;5077095;28;20463;-74
2023/03/18 07:20:42;;;;;;;7.40;6.60;;;7.50;73.20;;;7.34;62.15;97670.09;5081244;28;20466;-74
2023/03/18 07:23:10;;;;;;;11.43;7.40;;;7.40;73.40;;;7.46;61.73;97661.44;5095631;28;20501;-72
2023/03/18 07:25:37;;;;;;;9.40;7.60;;;7.50;73.50;;;7.58;61.72;97667.88;5081665;28;20484;-71
2023/03/18 07:28:05;;;;;;;8.23;7.17;;;7.50;73.50;;;7.80;61.35;97673.06;5123888;27;20457;-80
2023/03/18 07:30:33;;;;;;;11.70;7.63;;;7.60;73.40;;;7.30;61.30;97679.59;5092091;28;20538;-77
2023/03/18 07:33:01;;;;;;;9.50;7.47;;;7.60;72.90;;;7.00;63.25;97671.84;5102742;28;20958;-79
2023/03/18 07:35:29;;;;;;;8.30;7.10;;;7.20;73.40;;;7.27;62.24;97658.50;5082797;28;20513;-75
2023/03/18 07:37:57;;;;;;;10.30;7.57;;;7.30;73.70;;;7.41;62.41;97680.06;5081620;28;20515;-71
2023/03/18 07:40:24;;;;;;;10.07;8.10;;;7.40;73.60;;;7.62;61.87;97682.56;5097434;28;20976;-75
2023/03/18 07:42:52;;;;;;;11.13;6.97;;;7.50;73.60;;;7.94;60.79;97680.09;5076428;28;20515;-68
2023/03/18 07:45:19;;;;;;;9.13;6.90;;;7.70;73.50;;;7.98;60.62;97679.72;5089964;28;21091;-65
2023/03/18 07:47:47;;;;;;;7.43;6.50;;;7.80;72.90;;;7.76;60.93;97682.59;5090643;28;20455;-68
2023/03/18 07:50:16;;;;;;;7.43;6.67;;;7.80;72.70;;;8.09;60.60;97689.81;5085594;28;20451;-67
2023/03/18 07:52:45;;;;;;;10.30;7.03;;;7.90;72.80;;;8.18;60.06;97683.22;5074189;28;20459;-67
2023/03/18 07:55:12;;;;;;;8.93;6.80;;;8.00;72.50;;;8.43;59.70;97693.34;5079013;28;20475;-67
2023/03/18 07:57:40;;;;;;;11.73;7.70;;;8.20;72.40;;;8.03;58.84;97624.22;5084462;28;20516;-66
2023/03/18 08:00:11;;;;;;;11.80;6.90;;;8.30;72.00;;;8.42;59.33;97691.69;5099878;28;20972;-66
2023/03/18 08:02:38;;;;;;;8.07;6.90;;;8.30;71.70;;;8.60;58.61;97701.81;5080464;28;20523;-68
2023/03/18 08:05:07;;;;;;;9.30;6.43;;;8.50;71.30;;;8.73;58.45;97692.91;5085296;28;20477;-69
2023/03/18 08:07:34;;;;;;;9.30;6.97;;;8.50;71.30;;;8.88;57.46;97699.91;5076596;28;20447;-68
2023/03/18 08:10:03;;;;;;;6.40;5.77;;;8.70;70.90;;;8.52;57.75;97631.19;5083979;28;20535;-70
2023/03/18 08:12:31;;;;;;;8.90;7.10;;;8.80;70.80;;;9.21;57.59;97701.63;5091139;28;20478;-67
2023/03/18 08:14:59;;;;;;;8.10;7.27;;;9.00;70.70;;;9.34;56.92;97690.78;5076819;28;20467;-68
2023/03/18 08:17:27;;;;;;;9.83;7.10;;;9.10;70.30;;;9.23;56.92;97696.84;5110048;27;20536;-68
2023/03/18 08:19:54;;;;;;;9.73;8.10;;;9.10;70.20;;;9.31;56.67;97707.38;5106738;27;20444;-67
2023/03/18 08:22:22;;;;;;;8.80;7.27;;;9.20;69.90;;;9.51;56.47;97695.66;5091123;28;20442;-68
2023/03/18 08:24:50;;;;;;;12.10;7.33;;;9.40;70.00;;;9.82;56.29;97699.41;5094686;28;20443;-67
2023/03/18 08:27:19;;;;;;;9.27;6.50;;;9.50;69.70;;;9.78;56.40;97706.28;5087306;28;20454;-68
2023/03/18 08:29:47;;;;;;;7.67;6.90;;;9.60;69.40;;;9.62;56.74;97705.75;5087330;28;20458;-69
2023/03/18 08:32:14;;;;;;;8.70;7.30;;;9.60;69.30;;;10.02;56.01;97714.63;5084413;28;20552;-71
2023/03/18 08:34:41;;;;;;;14.83;8.63;;;9.70;69.40;;;10.48;55.28;97708.03;5086295;28;20492;-67
2023/03/18 08:37:09;;;;;;;8.67;6.37;;;10.00;69.20;;;10.67;54.35;97716.16;5085151;28;20974;-66
2023/03/18 08:39:36;;;;;;;9.37;6.83;;;10.30;67.50;;;10.37;54.80;97710.59;5087386;28;20468;-67
2023/03/18 08:42:05;;;;;;;7.60;6.87;;;10.30;66.80;;;9.62;56.31;97711.13;5097641;28;20456;-71
2023/03/18 08:44:34;;;;;;;10.77;7.23;;;9.90;68.10;;;9.70;57.23;97710.06;5097832;27;20842;-74
2023/03/18 08:47:01;;;;;;;10.57;7.90;;;9.80;68.70;;;9.68;57.14;97708.63;5105826;27;20450;-74
2023/03/18 08:49:29;;;;;;;11.57;7.57;;;9.80;69.00;;;10.13;56.57;97704.97;5103083;27;20616;-70
2023/03/18 08:51:56;;;;;;;9.33;7.87;;;10.00;67.90;;;10.40;56.09;97697.50;5085630;28;20478;-71
2023/03/18 08:54:24;;;;;;;9.10;7.47;;;10.20;68.10;;;10.27;55.67;97701.13;5085438;28;20477;-74
2023/03/18 08:56:51;;;;;;;9.27;7.30;;;10.20;67.40;;;10.32;55.20;97704.00;5093762;28;20471;-75
2023/03/18 08:59:19;;;;;;;8.10;6.70;;;10.30;67.30;;;10.52;55.25;97697.63;5092279;28;20548;-71
2023/03/18 09:01:47;;;;;;;8.80;6.50;;;10.40;67.20;;;10.79;55.82;97694.66;5084974;28;20464;-72
2023/03/18 09:04:15;;;;;;;10.13;7.60;;;10.60;67.60;;;11.02;53.83;97698.53;5100114;28;20465;-73
2023/03/18 09:06:42;;;;;;;12.73;7.10;;;10.80;66.80;;;11.07;54.05;97705.97;5101655;28;20451;-72
2023/03/18 09:09:10;;;;;;;8.57;6.77;;;11.00;66.20;;;11.28;53.37;97693.84;5092791;28;20456;-65
2023/03/18 09:11:38;;;;;;;8.23;7.00;;;11.10;66.20;;;11.54;53.14;97700.78;5091064;28;20498;-75
2023/03/18 09:14:05;;;;;;;7.80;5.83;;;11.30;65.70;;;11.32;52.92;97701.28;5093073;28;20462;-75
2023/03/18 09:16:33;;;;;;;9.50;6.17;;;11.30;65.10;;;11.84;52.73;97699.94;5094164;28;20451;-76
2023/03/18 09:19:02;;;;;;;7.00;6.30;;;11.50;65.40;;;12.00;51.95;97694.91;5100214;28;20430;-75
2023/03/18 09:21:30;;;;;;;6.17;5.57;;;11.70;64.80;;;11.98;51.53;97699.72;5141076;27;20610;-73
2023/03/18 09:23:57;;;;;;;6.70;5.77;;;11.90;64.00;;;11.88;50.95;97646.16;5113123;28;20437;-76
2023/03/18 09:26:25;;;;;;;8.80;5.50;;;11.90;63.70;;;12.03;51.55;97691.75;5086857;28;20454;-77
2023/03/18 09:28:52;;;;;;;7.60;5.90;;;11.90;63.30;;;12.07;50.64;97649.66;5135304;27;20911;-76
2023/03/18 09:31:19;;;;;;;8.23;6.00;;;12.00;63.30;;;12.49;50.69;97686.63;5095666;28;20918;-77
2023/03/18 09:33:47;;;;;;;7.50;5.90;;;12.10;62.90;;;12.66;49.89;97678.63;5090214;28;20454;-78
2023/03/18 09:36:15;;;;;;;6.53;5.70;;;12.30;62.70;;;12.66;49.94;97681.31;5101647;28;20471;-74
2023/03/18 09:38:43;;;;;;;8.20;6.30;;;12.40;62.20;;;12.45;50.27;97680.84;5092069;28;20455;-77
2023/03/18 09:41:29;;;;;;;9.43;6.57;;;12.30;61.50;;;12.87;50.26;97681.75;5093823;28;21799;-76
2023/03/18 09:44:09;;;;;;;7.60;5.97;;;12.50;62.70;;;13.18;48.91;97683.19;5102132;28;20466;-78
2023/03/18 09:46:57;;;;;;;7.17;5.03;;;12.70;61.40;;;13.34;48.74;97682.69;5092610;28;20446;-75
2023/03/18 09:49:41;;;;;;;10.10;6.00;;;12.90;60.80;;;13.36;48.13;97683.28;5083745;28;20521;-75
2023/03/18 09:52:21;;;;;;;5.00;4.60;;;13.00;60.00;;;13.65;47.40;97692.28;5075880;28;20487;-75
2023/03/18 09:54:57;;;;;;;7.17;4.63;;;13.20;59.50;;;13.68;46.93;97696.38;5093476;28;20452;-80
2023/03/18 09:57:27;;;;;;;7.03;4.70;;;13.40;58.50;;;13.59;46.46;97687.81;5115730;27;20458;-76
2023/03/18 10:00:00;;;;;;;5.97;5.47;;;13.40;57.60;;;13.76;46.22;97687.84;5120442;27;21155;-78
2023/03/18 10:02:33;;;;;;;8.07;4.60;;;13.50;57.30;;;13.97;45.75;97686.31;5090300;28;20445;-79
2023/03/18 10:05:05;;;;;;;7.03;4.90;;;13.70;57.50;;;13.46;45.59;97615.66;5088275;28;20455;-75
2023/03/18 10:07:40;;;;;;;8.90;5.10;;;13.60;56.80;;;14.21;45.32;97693.50;5100511;28;20435;-80
2023/03/18 10:10:12;;;;;;;6.47;4.50;;;13.70;56.50;;;14.22;44.45;97695.13;5088515;28;20518;-73
2023/03/18 10:12:46;;;;;;;6.00;4.93;;;13.90;56.10;;;14.40;44.24;97697.59;5079373;28;20531;-79
2023/03/18 10:15:18;;;;;;;6.80;4.80;;;14.00;55.90;;;14.61;44.04;97694.38;5112522;27;20533;-79
2023/03/18 10:17:52;;;;;;;6.43;4.73;;;14.10;55.70;;;14.48;43.93;97695.50;5099086;28;20538;-79
2023/03/18 10:20:27;;;;;;;9.03;4.40;;;14.20;54.90;;;14.67;43.00;97698.78;5096430;28;20444;-77
2023/03/18 10:23:14;;;;;;;8.83;4.17;;;14.30;54.40;;;14.78;42.61;97691.63;5114836;27;20445;-78
2023/03/18 10:25:49;;;;;;;6.10;4.07;;;14.30;53.90;;;14.82;41.94;97695.50;5122906;27;20480;-75
2023/03/18 10:28:50;;;;;;;8.03;3.87;;;14.40;52.80;;;14.85;41.43;97692.28;5092297;28;20492;-76
2023/03/18 10:31:32;;;;;;;6.00;3.93;;;14.50;52.00;;;14.69;41.92;97694.75;5097110;27;20456;-76
2023/03/18 10:34:01;;;;;;;4.00;3.60;;;14.50;51.90;;;14.89;41.49;97684.44;5093516;28;20508;-79
2023/03/18 10:36:36;;;;;;;4.77;4.13;;;14.60;52.10;;;15.13;40.62;97685.03;5118415;27;20518;-79
2023/03/18 10:39:14;;;;;;;5.27;4.33;;;14.70;52.00;;;14.99;40.79;97665.53;5094747;28;20450;-78